Longville, MN (56655)

11:16 AM CST on February 07, 2016 (GMT -0600)
Long Lake | | Change Station
CLOSE
Current Station
Personal Weather Station
Location: Longville, MN
Elevation: 1365 ft
Nearby Weather Stations
Active Advisory: Winter Weather Advisory

Elev 1365 ft 47.02 °N, 94.18 °W | Updated 7 minutes ago

Light Snow
Light Snow
34.4 °F
Feels Like 34 °F
N
1.0
Wind Variable Wind from WSW
Gusts 6.0 mph

Today
High -- | Low -- °F
--% Chance of Precip.
Yesterday
High -- | Low -- °F
Precip. -- in
Pressure 29.49 in
Visibility 1.2 miles
Clouds Mostly Cloudy 1000 ft
Overcast 1700 ft
Windchill 34 °F
Dew Point 33 °F
Humidity 93%
Rainfall 0.04 in
Snow Depth Not available.
7:34 AM 5:27 PM
Waning Crescent, 1% visible
METAR KXVG 071656Z AUTO 26007KT 1 1/4SM -SN BKN010 OVC017 01/00 A2949 RMK AO2
Pressure 29.49 in
Visibility 1.2 miles
Clouds Mostly Cloudy 1000 ft
Overcast 1700 ft
Windchill 34 °F
Dew Point 33 °F
Humidity 93%
Rainfall 0.04 in
Snow Depth Not available.
7:34 AM 5:27 PM
Waning Crescent, 1% visible
METAR KXVG 071656Z AUTO 26007KT 1 1/4SM -SN BKN010 OVC017 01/00 A2949 RMK AO2

10-Day Weather Forecast

Almanac

Astronomy

Feb. 07, 2016 Rise Set
Actual Time
Civil Twilight
Nautical Twilight
Astronomical Twilight
Moon
Length of Visible Light
Length of Day
Tomorrow will be .
, % of the Moon is Illuminated

Today's Extremes

State Highs State Lows

Community

WunderPhotos

Upload Photos

1,891,236 photos uploaded!

WunderBlog® & News

Nearby

Air Quality

  Air Quality AQ Index Pollutant
Not available.

Snow Depth

Station Depth Elevation

Earthquake Activity

City Distance Mag. Time & Date
Minimum magnitude displayed is 2.5.

Coastal Water Temperatures

Place Temperature

Stations

Nearby Weather Stations

Station Location Temp. Windchill Dew Point Humidity Wind Precip. Elev Updated Type
                   

Watches & Warnings

Winter Weather Advisory
Issued: 10:16 AM CST Feb. 7, 2016 – National Weather Service

... Winter Weather Advisory remains in effect until 6 am CST
Monday...

* locations... International Falls south to Grand Rapids... the
Brainerd lakes and Lake Mille lacs.

* Snow accumulations... 2 to 4 inches.

* Winds... northwest 15 to 25 mph with gusts up to 35 mph.

* Visibilities... reduced to less than one mile at times.

Precautionary/preparedness actions...

A Winter Weather Advisory for snow and blowing snow means that
visibilities will be limited due to a combination of falling and
blowing snow. Use caution when traveling... especially in open
areas that are more exposed to the wind. Roads may be slick and
hazardous... so allow extra time to reach your destination.